sensor_id;sensor_type;location;lat;lon;timestamp;P1;durP1;ratioP1;P2;durP2;ratioP2
54408;SDS011;40315;48.620;9.828;2024-03-06T00:01:16;27.08;;;17.35;;
54408;SDS011;40315;48.620;9.828;2024-03-06T00:03:46;23.48;;;16.33;;
54408;SDS011;40315;48.620;9.828;2024-03-06T00:06:13;24.35;;;16.92;;
54408;SDS011;40315;48.620;9.828;2024-03-06T00:08:40;25.23;;;17.50;;
54408;SDS011;40315;48.620;9.828;2024-03-06T00:11:07;23.13;;;16.13;;
54408;SDS011;40315;48.620;9.828;2024-03-06T00:13:34;23.95;;;16.17;;
54408;SDS011;40315;48.620;9.828;2024-03-06T00:16:01;25.95;;;15.88;;
54408;SDS011;40315;48.620;9.828;2024-03-06T00:18:30;22.92;;;16.88;;
54408;SDS011;40315;48.620;9.828;2024-03-06T00:20:58;22.90;;;16.25;;
54408;SDS011;40315;48.620;9.828;2024-03-06T00:23:25;24.52;;;16.08;;
54408;SDS011;40315;48.620;9.828;2024-03-06T00:25:52;22.83;;;15.70;;
54408;SDS011;40315;48.620;9.828;2024-03-06T00:28:19;21.40;;;14.98;;
54408;SDS011;40315;48.620;9.828;2024-03-06T00:30:47;22.92;;;15.43;;
54408;SDS011;40315;48.620;9.828;2024-03-06T00:33:14;21.88;;;15.23;;
54408;SDS011;40315;48.620;9.828;2024-03-06T00:35:44;22.35;;;15.30;;
54408;SDS011;40315;48.620;9.828;2024-03-06T00:38:11;22.05;;;15.88;;
54408;SDS011;40315;48.620;9.828;2024-03-06T00:40:40;22.67;;;16.10;;
54408;SDS011;40315;48.620;9.828;2024-03-06T00:43:10;23.35;;;16.40;;
54408;SDS011;40315;48.620;9.828;2024-03-06T00:45:37;22.02;;;15.82;;
54408;SDS011;40315;48.620;9.828;2024-03-06T00:48:05;23.27;;;16.65;;
54408;SDS011;40315;48.620;9.828;2024-03-06T00:50:32;23.48;;;15.73;;
54408;SDS011;40315;48.620;9.828;2024-03-06T00:53:01;22.42;;;15.70;;
54408;SDS011;40315;48.620;9.828;2024-03-06T00:55:29;24.33;;;16.38;;
54408;SDS011;40315;48.620;9.828;2024-03-06T00:57:56;21.23;;;15.75;;
54408;SDS011;40315;48.620;9.828;2024-03-06T01:00:24;23.85;;;16.30;;
54408;SDS011;40315;48.620;9.828;2024-03-06T01:02:51;23.55;;;15.82;;
54408;SDS011;40315;48.620;9.828;2024-03-06T01:05:18;24.90;;;15.98;;
54408;SDS011;40315;48.620;9.828;2024-03-06T01:07:45;21.05;;;15.85;;
54408;SDS011;40315;48.620;9.828;2024-03-06T01:10:14;22.23;;;17.65;;
54408;SDS011;40315;48.620;9.828;2024-03-06T01:12:44;22.92;;;15.43;;
54408;SDS011;40315;48.620;9.828;2024-03-06T01:15:11;21.73;;;15.15;;
54408;SDS011;40315;48.620;9.828;2024-03-06T01:17:38;22.75;;;16.38;;
54408;SDS011;40315;48.620;9.828;2024-03-06T01:20:06;20.98;;;15.77;;
54408;SDS011;40315;48.620;9.828;2024-03-06T01:22:34;22.65;;;16.75;;
54408;SDS011;40315;48.620;9.828;2024-03-06T01:25:01;23.67;;;16.77;;
54408;SDS011;40315;48.620;9.828;2024-03-06T01:27:31;24.13;;;16.20;;
54408;SDS011;40315;48.620;9.828;2024-03-06T01:29:58;24.38;;;16.90;;
54408;SDS011;40315;48.620;9.828;2024-03-06T01:32:25;21.70;;;15.70;;
54408;SDS011;40315;48.620;9.828;2024-03-06T01:34:53;23.50;;;17.15;;
54408;SDS011;40315;48.620;9.828;2024-03-06T01:37:20;24.77;;;17.02;;
54408;SDS011;40315;48.620;9.828;2024-03-06T01:39:47;22.85;;;17.08;;
54408;SDS011;40315;48.620;9.828;2024-03-06T01:42:16;23.58;;;17.23;;
54408;SDS011;40315;48.620;9.828;2024-03-06T01:44:45;26.55;;;18.13;;
54408;SDS011;40315;48.620;9.828;2024-03-06T01:47:12;24.08;;;17.55;;
54408;SDS011;40315;48.620;9.828;2024-03-06T01:49:41;22.77;;;16.77;;
54408;SDS011;40315;48.620;9.828;2024-03-06T01:52:09;23.40;;;17.98;;
54408;SDS011;40315;48.620;9.828;2024-03-06T01:54:36;25.75;;;17.92;;
54408;SDS011;40315;48.620;9.828;2024-03-06T01:57:04;26.65;;;18.98;;
54408;SDS011;40315;48.620;9.828;2024-03-06T01:59:33;29.10;;;20.33;;
54408;SDS011;40315;48.620;9.828;2024-03-06T02:02:02;26.45;;;20.00;;
54408;SDS011;40315;48.620;9.828;2024-03-06T02:04:30;27.33;;;19.42;;
54408;SDS011;40315;48.620;9.828;2024-03-06T02:06:58;29.65;;;19.77;;
54408;SDS011;40315;48.620;9.828;2024-03-06T02:09:25;27.95;;;18.77;;
54408;SDS011;40315;48.620;9.828;2024-03-06T02:11:53;27.42;;;19.60;;
54408;SDS011;40315;48.620;9.828;2024-03-06T02:14:20;27.90;;;20.27;;
54408;SDS011;40315;48.620;9.828;2024-03-06T02:16:47;29.13;;;19.40;;
54408;SDS011;40315;48.620;9.828;2024-03-06T02:19:16;27.38;;;19.52;;
54408;SDS011;40315;48.620;9.828;2024-03-06T02:21:44;27.92;;;19.10;;
54408;SDS011;40315;48.620;9.828;2024-03-06T02:24:12;28.35;;;19.08;;
54408;SDS011;40315;48.620;9.828;2024-03-06T02:26:39;28.00;;;20.40;;
54408;SDS011;40315;48.620;9.828;2024-03-06T02:29:07;28.40;;;18.67;;
54408;SDS011;40315;48.620;9.828;2024-03-06T02:31:35;24.92;;;18.17;;
54408;SDS011;40315;48.620;9.828;2024-03-06T02:34:04;27.00;;;18.27;;
54408;SDS011;40315;48.620;9.828;2024-03-06T02:36:31;24.67;;;16.92;;
54408;SDS011;40315;48.620;9.828;2024-03-06T02:39:00;24.75;;;18.02;;
54408;SDS011;40315;48.620;9.828;2024-03-06T02:41:34;23.23;;;17.35;;
54408;SDS011;40315;48.620;9.828;2024-03-06T02:44:01;24.27;;;17.42;;
54408;SDS011;40315;48.620;9.828;2024-03-06T02:46:29;24.02;;;16.90;;
54408;SDS011;40315;48.620;9.828;2024-03-06T02:48:56;24.13;;;16.92;;
54408;SDS011;40315;48.620;9.828;2024-03-06T02:51:23;24.70;;;17.48;;
54408;SDS011;40315;48.620;9.828;2024-03-06T02:53:50;23.63;;;17.70;;
54408;SDS011;40315;48.620;9.828;2024-03-06T02:56:19;21.95;;;17.30;;
54408;SDS011;40315;48.620;9.828;2024-03-06T02:58:47;23.98;;;17.90;;
54408;SDS011;40315;48.620;9.828;2024-03-06T03:01:14;22.88;;;16.52;;
54408;SDS011;40315;48.620;9.828;2024-03-06T03:03:42;23.38;;;15.98;;
54408;SDS011;40315;48.620;9.828;2024-03-06T03:06:12;21.90;;;16.70;;
54408;SDS011;40315;48.620;9.828;2024-03-06T03:08:39;22.55;;;15.93;;
54408;SDS011;40315;48.620;9.828;2024-03-06T03:11:06;24.77;;;16.30;;
54408;SDS011;40315;48.620;9.828;2024-03-06T03:13:36;23.20;;;15.65;;
54408;SDS011;40315;48.620;9.828;2024-03-06T03:16:04;23.75;;;16.48;;
54408;SDS011;40315;48.620;9.828;2024-03-06T03:18:32;23.05;;;16.77;;
54408;SDS011;40315;48.620;9.828;2024-03-06T03:20:59;22.10;;;16.35;;
54408;SDS011;40315;48.620;9.828;2024-03-06T03:23:26;19.73;;;16.30;;
54408;SDS011;40315;48.620;9.828;2024-03-06T03:25:54;23.05;;;16.90;;
54408;SDS011;40315;48.620;9.828;2024-03-06T03:28:21;20.42;;;16.55;;
54408;SDS011;40315;48.620;9.828;2024-03-06T03:30:50;21.60;;;16.73;;
54408;SDS011;40315;48.620;9.828;2024-03-06T03:33:17;19.88;;;16.13;;
54408;SDS011;40315;48.620;9.828;2024-03-06T03:35:44;22.05;;;16.40;;
54408;SDS011;40315;48.620;9.828;2024-03-06T03:38:11;22.15;;;16.25;;
54408;SDS011;40315;48.620;9.828;2024-03-06T03:40:39;22.20;;;16.50;;
54408;SDS011;40315;48.620;9.828;2024-03-06T03:43:06;20.42;;;16.05;;
54408;SDS011;40315;48.620;9.828;2024-03-06T03:45:34;21.30;;;16.42;;
54408;SDS011;40315;48.620;9.828;2024-03-06T03:48:03;20.63;;;15.45;;
54408;SDS011;40315;48.620;9.828;2024-03-06T03:50:30;21.70;;;15.98;;
54408;SDS011;40315;48.620;9.828;2024-03-06T03:52:58;20.30;;;15.70;;
54408;SDS011;40315;48.620;9.828;2024-03-06T03:55:26;19.92;;;16.13;;
54408;SDS011;40315;48.620;9.828;2024-03-06T03:57:53;22.23;;;16.23;;
54408;SDS011;40315;48.620;9.828;2024-03-06T04:00:20;20.38;;;15.32;;
54408;SDS011;40315;48.620;9.828;2024-03-06T04:02:48;19.95;;;15.77;;
54408;SDS011;40315;48.620;9.828;2024-03-06T04:05:16;21.00;;;15.15;;
54408;SDS011;40315;48.620;9.828;2024-03-06T04:07:44;20.15;;;14.70;;
54408;SDS011;40315;48.620;9.828;2024-03-06T04:10:11;19.85;;;15.68;;
54408;SDS011;40315;48.620;9.828;2024-03-06T04:12:39;21.13;;;15.93;;
54408;SDS011;40315;48.620;9.828;2024-03-06T04:15:06;20.15;;;15.48;;
54408;SDS011;40315;48.620;9.828;2024-03-06T04:17:34;19.80;;;14.95;;
54408;SDS011;40315;48.620;9.828;2024-03-06T04:20:02;21.20;;;15.65;;
54408;SDS011;40315;48.620;9.828;2024-03-06T04:22:32;18.85;;;14.63;;
54408;SDS011;40315;48.620;9.828;2024-03-06T04:25:00;19.58;;;15.05;;
54408;SDS011;40315;48.620;9.828;2024-03-06T04:27:29;19.35;;;15.02;;
54408;SDS011;40315;48.620;9.828;2024-03-06T04:29:56;20.60;;;15.05;;
54408;SDS011;40315;48.620;9.828;2024-03-06T04:32:23;18.40;;;14.15;;
54408;SDS011;40315;48.620;9.828;2024-03-06T04:34:50;17.85;;;13.95;;
54408;SDS011;40315;48.620;9.828;2024-03-06T04:37:18;17.02;;;13.23;;
54408;SDS011;40315;48.620;9.828;2024-03-06T04:39:47;15.52;;;13.00;;
54408;SDS011;40315;48.620;9.828;2024-03-06T04:42:15;17.20;;;13.25;;
54408;SDS011;40315;48.620;9.828;2024-03-06T04:44:42;18.60;;;14.45;;
54408;SDS011;40315;48.620;9.828;2024-03-06T04:47:09;19.13;;;14.23;;
54408;SDS011;40315;48.620;9.828;2024-03-06T04:49:36;18.40;;;13.85;;
54408;SDS011;40315;48.620;9.828;2024-03-06T04:52:04;19.27;;;13.88;;
54408;SDS011;40315;48.620;9.828;2024-03-06T04:54:31;18.00;;;13.43;;
54408;SDS011;40315;48.620;9.828;2024-03-06T04:56:59;17.70;;;13.65;;
54408;SDS011;40315;48.620;9.828;2024-03-06T04:59:28;18.25;;;13.07;;
54408;SDS011;40315;48.620;9.828;2024-03-06T05:01:54;18.08;;;13.93;;
54408;SDS011;40315;48.620;9.828;2024-03-06T05:04:21;19.73;;;13.93;;
54408;SDS011;40315;48.620;9.828;2024-03-06T05:06:48;16.48;;;12.45;;
54408;SDS011;40315;48.620;9.828;2024-03-06T05:09:15;17.58;;;13.38;;
54408;SDS011;40315;48.620;9.828;2024-03-06T05:11:45;17.45;;;12.10;;
54408;SDS011;40315;48.620;9.828;2024-03-06T05:14:13;18.67;;;13.73;;
54408;SDS011;40315;48.620;9.828;2024-03-06T05:16:40;19.20;;;13.43;;
54408;SDS011;40315;48.620;9.828;2024-03-06T05:19:07;18.90;;;13.35;;
54408;SDS011;40315;48.620;9.828;2024-03-06T05:21:35;19.25;;;13.27;;
54408;SDS011;40315;48.620;9.828;2024-03-06T05:24:03;18.83;;;13.48;;
54408;SDS011;40315;48.620;9.828;2024-03-06T05:26:30;18.95;;;13.80;;
54408;SDS011;40315;48.620;9.828;2024-03-06T05:28:57;18.40;;;13.82;;
54408;SDS011;40315;48.620;9.828;2024-03-06T05:31:25;17.38;;;13.48;;
54408;SDS011;40315;48.620;9.828;2024-03-06T05:33:52;17.35;;;13.02;;
54408;SDS011;40315;48.620;9.828;2024-03-06T05:36:21;19.60;;;13.27;;
54408;SDS011;40315;48.620;9.828;2024-03-06T05:38:49;19.52;;;13.65;;
54408;SDS011;40315;48.620;9.828;2024-03-06T05:41:16;14.60;;;11.82;;
54408;SDS011;40315;48.620;9.828;2024-03-06T05:43:44;15.43;;;11.25;;
54408;SDS011;40315;48.620;9.828;2024-03-06T05:46:11;20.60;;;14.60;;
54408;SDS011;40315;48.620;9.828;2024-03-06T05:48:39;20.70;;;14.73;;
54408;SDS011;40315;48.620;9.828;2024-03-06T05:51:06;19.67;;;14.50;;
54408;SDS011;40315;48.620;9.828;2024-03-06T05:53:37;20.08;;;14.05;;
54408;SDS011;40315;48.620;9.828;2024-03-06T05:56:07;19.95;;;14.05;;
54408;SDS011;40315;48.620;9.828;2024-03-06T05:58:34;20.10;;;14.40;;
54408;SDS011;40315;48.620;9.828;2024-03-06T06:01:02;21.88;;;15.25;;
54408;SDS011;40315;48.620;9.828;2024-03-06T06:03:29;16.80;;;13.75;;
54408;SDS011;40315;48.620;9.828;2024-03-06T06:06:00;18.23;;;14.48;;
54408;SDS011;40315;48.620;9.828;2024-03-06T06:08:28;21.02;;;14.93;;
54408;SDS011;40315;48.620;9.828;2024-03-06T06:10:55;19.98;;;14.93;;
54408;SDS011;40315;48.620;9.828;2024-03-06T06:13:22;20.20;;;15.00;;
54408;SDS011;40315;48.620;9.828;2024-03-06T06:15:48;20.17;;;15.13;;
54408;SDS011;40315;48.620;9.828;2024-03-06T06:18:15;23.60;;;15.73;;
54408;SDS011;40315;48.620;9.828;2024-03-06T06:20:42;25.15;;;16.23;;
54408;SDS011;40315;48.620;9.828;2024-03-06T06:23:11;23.63;;;16.38;;
54408;SDS011;40315;48.620;9.828;2024-03-06T06:25:38;24.50;;;16.60;;
54408;SDS011;40315;48.620;9.828;2024-03-06T06:28:06;23.40;;;16.77;;
54408;SDS011;40315;48.620;9.828;2024-03-06T06:30:37;26.02;;;17.35;;
54408;SDS011;40315;48.620;9.828;2024-03-06T06:33:04;25.38;;;17.23;;
54408;SDS011;40315;48.620;9.828;2024-03-06T06:35:32;29.90;;;18.15;;
54408;SDS011;40315;48.620;9.828;2024-03-06T06:38:00;23.55;;;16.85;;
54408;SDS011;40315;48.620;9.828;2024-03-06T06:40:29;24.20;;;17.45;;
54408;SDS011;40315;48.620;9.828;2024-03-06T06:42:58;25.90;;;17.17;;
54408;SDS011;40315;48.620;9.828;2024-03-06T06:45:26;22.98;;;17.35;;
54408;SDS011;40315;48.620;9.828;2024-03-06T06:47:53;24.58;;;17.20;;
54408;SDS011;40315;48.620;9.828;2024-03-06T06:50:20;24.10;;;16.65;;
54408;SDS011;40315;48.620;9.828;2024-03-06T06:52:51;25.02;;;18.15;;
54408;SDS011;40315;48.620;9.828;2024-03-06T06:55:20;25.85;;;18.05;;
54408;SDS011;40315;48.620;9.828;2024-03-06T06:57:50;24.70;;;19.45;;
54408;SDS011;40315;48.620;9.828;2024-03-06T07:00:18;24.48;;;18.40;;
54408;SDS011;40315;48.620;9.828;2024-03-06T07:02:48;24.55;;;17.30;;
54408;SDS011;40315;48.620;9.828;2024-03-06T07:05:15;21.60;;;16.55;;
54408;SDS011;40315;48.620;9.828;2024-03-06T07:07:43;22.83;;;16.67;;
54408;SDS011;40315;48.620;9.828;2024-03-06T07:10:10;28.40;;;19.27;;
54408;SDS011;40315;48.620;9.828;2024-03-06T07:15:14;24.85;;;18.77;;
54408;SDS011;40315;48.620;9.828;2024-03-06T07:17:42;24.33;;;18.60;;
54408;SDS011;40315;48.620;9.828;2024-03-06T07:20:09;23.38;;;17.23;;
54408;SDS011;40315;48.620;9.828;2024-03-06T07:22:37;25.00;;;17.35;;
54408;SDS011;40315;48.620;9.828;2024-03-06T07:25:06;24.63;;;16.50;;
54408;SDS011;40315;48.620;9.828;2024-03-06T07:27:35;24.38;;;16.65;;
54408;SDS011;40315;48.620;9.828;2024-03-06T07:30:02;23.77;;;17.17;;
54408;SDS011;40315;48.620;9.828;2024-03-06T07:32:30;22.20;;;16.30;;
54408;SDS011;40315;48.620;9.828;2024-03-06T07:34:58;23.23;;;16.27;;
54408;SDS011;40315;48.620;9.828;2024-03-06T07:37:25;21.02;;;15.27;;
54408;SDS011;40315;48.620;9.828;2024-03-06T07:39:52;22.17;;;15.48;;
54408;SDS011;40315;48.620;9.828;2024-03-06T07:42:19;23.00;;;15.90;;
54408;SDS011;40315;48.620;9.828;2024-03-06T07:44:46;22.55;;;15.57;;
54408;SDS011;40315;48.620;9.828;2024-03-06T07:47:13;22.02;;;15.45;;
54408;SDS011;40315;48.620;9.828;2024-03-06T07:49:42;21.13;;;15.48;;
54408;SDS011;40315;48.620;9.828;2024-03-06T07:52:10;19.25;;;15.20;;
54408;SDS011;40315;48.620;9.828;2024-03-06T07:54:37;20.25;;;15.02;;
54408;SDS011;40315;48.620;9.828;2024-03-06T07:57:05;21.13;;;14.73;;
54408;SDS011;40315;48.620;9.828;2024-03-06T07:59:35;20.15;;;15.55;;
54408;SDS011;40315;48.620;9.828;2024-03-06T08:02:05;20.73;;;14.27;;
54408;SDS011;40315;48.620;9.828;2024-03-06T08:04:32;20.02;;;14.48;;
54408;SDS011;40315;48.620;9.828;2024-03-06T08:07:05;21.42;;;14.38;;
54408;SDS011;40315;48.620;9.828;2024-03-06T08:09:35;16.98;;;13.10;;
54408;SDS011;40315;48.620;9.828;2024-03-06T08:12:08;19.70;;;14.75;;
54408;SDS011;40315;48.620;9.828;2024-03-06T08:14:36;20.25;;;14.75;;
54408;SDS011;40315;48.620;9.828;2024-03-06T08:17:05;21.15;;;14.15;;
54408;SDS011;40315;48.620;9.828;2024-03-06T08:19:33;20.60;;;14.93;;
54408;SDS011;40315;48.620;9.828;2024-03-06T08:22:00;19.67;;;14.05;;
54408;SDS011;40315;48.620;9.828;2024-03-06T08:24:29;19.42;;;13.60;;
54408;SDS011;40315;48.620;9.828;2024-03-06T08:26:56;17.90;;;13.95;;
54408;SDS011;40315;48.620;9.828;2024-03-06T08:29:24;17.40;;;13.52;;
54408;SDS011;40315;48.620;9.828;2024-03-06T08:31:52;18.95;;;13.60;;
54408;SDS011;40315;48.620;9.828;2024-03-06T08:34:23;15.93;;;11.57;;
54408;SDS011;40315;48.620;9.828;2024-03-06T08:36:50;17.98;;;13.00;;
54408;SDS011;40315;48.620;9.828;2024-03-06T08:39:18;16.83;;;12.68;;
54408;SDS011;40315;48.620;9.828;2024-03-06T08:41:47;17.58;;;12.90;;
54408;SDS011;40315;48.620;9.828;2024-03-06T08:44:14;16.52;;;12.88;;
54408;SDS011;40315;48.620;9.828;2024-03-06T08:46:41;16.30;;;12.45;;
54408;SDS011;40315;48.620;9.828;2024-03-06T08:49:08;16.30;;;11.85;;
54408;SDS011;40315;48.620;9.828;2024-03-06T08:51:36;14.40;;;11.77;;
54408;SDS011;40315;48.620;9.828;2024-03-06T08:54:03;14.40;;;11.68;;
54408;SDS011;40315;48.620;9.828;2024-03-06T08:56:30;14.93;;;11.80;;
54408;SDS011;40315;48.620;9.828;2024-03-06T08:59:00;14.68;;;11.55;;
54408;SDS011;40315;48.620;9.828;2024-03-06T09:01:28;14.07;;;10.65;;
54408;SDS011;40315;48.620;9.828;2024-03-06T09:03:55;16.45;;;12.32;;
54408;SDS011;40315;48.620;9.828;2024-03-06T09:06:23;16.25;;;11.15;;
54408;SDS011;40315;48.620;9.828;2024-03-06T09:08:50;15.68;;;11.57;;
54408;SDS011;40315;48.620;9.828;2024-03-06T09:11:17;15.52;;;11.73;;
54408;SDS011;40315;48.620;9.828;2024-03-06T09:13:44;16.73;;;10.45;;
54408;SDS011;40315;48.620;9.828;2024-03-06T09:16:12;15.52;;;11.10;;
54408;SDS011;40315;48.620;9.828;2024-03-06T09:18:39;15.98;;;11.52;;
54408;SDS011;40315;48.620;9.828;2024-03-06T09:21:07;13.77;;;10.20;;
54408;SDS011;40315;48.620;9.828;2024-03-06T09:23:34;16.27;;;11.27;;
54408;SDS011;40315;48.620;9.828;2024-03-06T09:26:01;16.73;;;11.20;;
54408;SDS011;40315;48.620;9.828;2024-03-06T09:28:34;14.93;;;11.25;;
54408;SDS011;40315;48.620;9.828;2024-03-06T09:31:03;14.60;;;11.50;;
54408;SDS011;40315;48.620;9.828;2024-03-06T09:33:32;15.05;;;11.48;;
54408;SDS011;40315;48.620;9.828;2024-03-06T09:36:00;16.88;;;12.23;;
54408;SDS011;40315;48.620;9.828;2024-03-06T09:38:27;17.52;;;11.93;;
54408;SDS011;40315;48.620;9.828;2024-03-06T09:40:55;14.95;;;11.75;;
54408;SDS011;40315;48.620;9.828;2024-03-06T09:43:23;16.08;;;11.52;;
54408;SDS011;40315;48.620;9.828;2024-03-06T09:45:50;18.70;;;13.07;;
54408;SDS011;40315;48.620;9.828;2024-03-06T09:48:17;18.15;;;12.98;;
54408;SDS011;40315;48.620;9.828;2024-03-06T09:50:48;17.30;;;12.38;;
54408;SDS011;40315;48.620;9.828;2024-03-06T09:53:17;18.55;;;12.98;;
54408;SDS011;40315;48.620;9.828;2024-03-06T09:55:46;17.35;;;13.10;;
54408;SDS011;40315;48.620;9.828;2024-03-06T09:58:15;17.77;;;12.55;;
54408;SDS011;40315;48.620;9.828;2024-03-06T10:00:43;17.30;;;12.07;;
54408;SDS011;40315;48.620;9.828;2024-03-06T10:03:12;19.33;;;12.90;;
54408;SDS011;40315;48.620;9.828;2024-03-06T10:05:41;19.52;;;13.63;;
54408;SDS011;40315;48.620;9.828;2024-03-06T10:08:10;18.75;;;13.65;;
54408;SDS011;40315;48.620;9.828;2024-03-06T10:10:39;19.17;;;14.63;;
54408;SDS011;40315;48.620;9.828;2024-03-06T10:13:08;18.55;;;13.05;;
54408;SDS011;40315;48.620;9.828;2024-03-06T10:15:35;16.77;;;12.23;;
54408;SDS011;40315;48.620;9.828;2024-03-06T10:18:12;15.95;;;10.95;;
54408;SDS011;40315;48.620;9.828;2024-03-06T10:20:40;13.10;;;9.20;;
54408;SDS011;40315;48.620;9.828;2024-03-06T10:23:10;16.20;;;11.60;;
54408;SDS011;40315;48.620;9.828;2024-03-06T10:25:42;16.60;;;12.32;;
54408;SDS011;40315;48.620;9.828;2024-03-06T10:28:10;16.45;;;11.95;;
54408;SDS011;40315;48.620;9.828;2024-03-06T10:30:38;17.13;;;12.10;;
54408;SDS011;40315;48.620;9.828;2024-03-06T10:33:07;18.60;;;11.68;;
54408;SDS011;40315;48.620;9.828;2024-03-06T10:35:35;18.15;;;12.43;;
54408;SDS011;40315;48.620;9.828;2024-03-06T10:38:03;18.88;;;12.27;;
54408;SDS011;40315;48.620;9.828;2024-03-06T10:40:33;18.88;;;12.43;;
54408;SDS011;40315;48.620;9.828;2024-03-06T10:43:01;15.75;;;11.45;;
54408;SDS011;40315;48.620;9.828;2024-03-06T10:45:34;17.50;;;11.38;;
54408;SDS011;40315;48.620;9.828;2024-03-06T10:48:04;17.85;;;12.60;;
54408;SDS011;40315;48.620;9.828;2024-03-06T10:50:38;19.75;;;12.68;;
54408;SDS011;40315;48.620;9.828;2024-03-06T10:53:07;17.20;;;10.98;;
54408;SDS011;40315;48.620;9.828;2024-03-06T10:55:36;15.23;;;11.40;;
54408;SDS011;40315;48.620;9.828;2024-03-06T10:58:04;13.80;;;10.60;;
54408;SDS011;40315;48.620;9.828;2024-03-06T11:00:34;14.48;;;10.52;;
54408;SDS011;40315;48.620;9.828;2024-03-06T11:03:03;13.45;;;10.70;;
54408;SDS011;40315;48.620;9.828;2024-03-06T11:05:34;14.35;;;10.70;;
54408;SDS011;40315;48.620;9.828;2024-03-06T11:08:02;15.73;;;11.45;;
54408;SDS011;40315;48.620;9.828;2024-03-06T11:10:30;17.40;;;12.23;;
54408;SDS011;40315;48.620;9.828;2024-03-06T11:12:58;15.60;;;10.68;;
54408;SDS011;40315;48.620;9.828;2024-03-06T11:15:27;14.95;;;10.88;;
54408;SDS011;40315;48.620;9.828;2024-03-06T11:17:54;15.05;;;10.30;;
54408;SDS011;40315;48.620;9.828;2024-03-06T11:20:23;14.25;;;9.30;;
54408;SDS011;40315;48.620;9.828;2024-03-06T11:23:03;12.30;;;9.65;;
54408;SDS011;40315;48.620;9.828;2024-03-06T11:25:55;12.32;;;8.80;;
54408;SDS011;40315;48.620;9.828;2024-03-06T11:28:26;12.25;;;9.18;;
54408;SDS011;40315;48.620;9.828;2024-03-06T11:30:57;11.80;;;9.02;;
54408;SDS011;40315;48.620;9.828;2024-03-06T11:33:34;12.57;;;8.93;;
54408;SDS011;40315;48.620;9.828;2024-03-06T11:36:19;14.32;;;9.35;;
54408;SDS011;40315;48.620;9.828;2024-03-06T11:38:48;13.05;;;9.68;;
54408;SDS011;40315;48.620;9.828;2024-03-06T11:41:18;13.07;;;9.25;;
54408;SDS011;40315;48.620;9.828;2024-03-06T11:43:47;15.70;;;10.13;;
54408;SDS011;40315;48.620;9.828;2024-03-06T11:46:18;15.95;;;11.00;;
54408;SDS011;40315;48.620;9.828;2024-03-06T11:48:52;15.85;;;10.90;;
54408;SDS011;40315;48.620;9.828;2024-03-06T11:51:20;14.55;;;10.13;;
54408;SDS011;40315;48.620;9.828;2024-03-06T11:53:51;12.27;;;10.13;;
54408;SDS011;40315;48.620;9.828;2024-03-06T11:56:19;15.90;;;10.88;;
54408;SDS011;40315;48.620;9.828;2024-03-06T11:58:47;16.15;;;10.55;;
54408;SDS011;40315;48.620;9.828;2024-03-06T12:01:15;13.82;;;10.32;;
54408;SDS011;40315;48.620;9.828;2024-03-06T12:03:43;15.88;;;11.35;;
54408;SDS011;40315;48.620;9.828;2024-03-06T12:06:10;14.68;;;10.73;;
54408;SDS011;40315;48.620;9.828;2024-03-06T12:08:39;14.93;;;11.48;;
54408;SDS011;40315;48.620;9.828;2024-03-06T12:11:09;17.75;;;11.80;;
54408;SDS011;40315;48.620;9.828;2024-03-06T12:13:41;16.35;;;12.50;;
54408;SDS011;40315;48.620;9.828;2024-03-06T12:16:10;12.38;;;10.20;;
54408;SDS011;40315;48.620;9.828;2024-03-06T12:18:37;13.70;;;11.30;;
54408;SDS011;40315;48.620;9.828;2024-03-06T12:21:04;14.95;;;11.60;;
54408;SDS011;40315;48.620;9.828;2024-03-06T12:23:31;14.55;;;11.07;;
54408;SDS011;40315;48.620;9.828;2024-03-06T12:26:02;15.05;;;11.35;;
54408;SDS011;40315;48.620;9.828;2024-03-06T12:28:30;12.82;;;10.65;;
54408;SDS011;40315;48.620;9.828;2024-03-06T12:30:57;13.50;;;10.80;;
54408;SDS011;40315;48.620;9.828;2024-03-06T12:33:29;13.32;;;10.23;;
54408;SDS011;40315;48.620;9.828;2024-03-06T12:36:03;13.55;;;10.23;;
54408;SDS011;40315;48.620;9.828;2024-03-06T12:38:31;13.65;;;10.50;;
54408;SDS011;40315;48.620;9.828;2024-03-06T12:40:58;13.63;;;9.95;;
54408;SDS011;40315;48.620;9.828;2024-03-06T12:43:26;15.43;;;11.27;;
54408;SDS011;40315;48.620;9.828;2024-03-06T12:45:54;13.30;;;10.48;;
54408;SDS011;40315;48.620;9.828;2024-03-06T12:48:22;15.55;;;10.80;;
54408;SDS011;40315;48.620;9.828;2024-03-06T12:50:51;12.85;;;9.45;;
54408;SDS011;40315;48.620;9.828;2024-03-06T12:53:19;14.35;;;10.95;;
54408;SDS011;40315;48.620;9.828;2024-03-06T12:55:47;13.50;;;9.43;;
54408;SDS011;40315;48.620;9.828;2024-03-06T12:58:15;14.15;;;10.50;;
54408;SDS011;40315;48.620;9.828;2024-03-06T13:00:42;14.48;;;10.38;;
54408;SDS011;40315;48.620;9.828;2024-03-06T13:03:09;14.27;;;10.43;;
54408;SDS011;40315;48.620;9.828;2024-03-06T13:05:36;13.43;;;9.77;;
54408;SDS011;40315;48.620;9.828;2024-03-06T13:08:05;12.45;;;10.13;;
54408;SDS011;40315;48.620;9.828;2024-03-06T13:10:32;13.18;;;9.88;;
54408;SDS011;40315;48.620;9.828;2024-03-06T13:13:00;12.50;;;9.88;;
54408;SDS011;40315;48.620;9.828;2024-03-06T13:15:28;14.63;;;10.52;;
54408;SDS011;40315;48.620;9.828;2024-03-06T13:17:55;13.55;;;10.15;;
54408;SDS011;40315;48.620;9.828;2024-03-06T13:20:22;12.30;;;9.93;;
54408;SDS011;40315;48.620;9.828;2024-03-06T13:22:49;12.35;;;9.20;;
54408;SDS011;40315;48.620;9.828;2024-03-06T13:25:18;13.98;;;11.05;;
54408;SDS011;40315;48.620;9.828;2024-03-06T13:27:46;14.27;;;10.82;;
54408;SDS011;40315;48.620;9.828;2024-03-06T13:30:13;15.57;;;11.32;;
54408;SDS011;40315;48.620;9.828;2024-03-06T13:32:40;16.30;;;11.55;;
54408;SDS011;40315;48.620;9.828;2024-03-06T13:35:08;18.17;;;13.00;;
54408;SDS011;40315;48.620;9.828;2024-03-06T13:37:37;14.65;;;10.27;;
54408;SDS011;40315;48.620;9.828;2024-03-06T13:40:05;13.65;;;10.38;;
54408;SDS011;40315;48.620;9.828;2024-03-06T13:42:35;14.52;;;10.50;;
54408;SDS011;40315;48.620;9.828;2024-03-06T13:45:02;15.05;;;12.10;;
54408;SDS011;40315;48.620;9.828;2024-03-06T13:47:30;15.13;;;10.65;;
54408;SDS011;40315;48.620;9.828;2024-03-06T13:49:57;12.60;;;9.60;;
54408;SDS011;40315;48.620;9.828;2024-03-06T13:52:24;13.77;;;9.52;;
54408;SDS011;40315;48.620;9.828;2024-03-06T13:54:51;12.60;;;9.25;;
54408;SDS011;40315;48.620;9.828;2024-03-06T13:57:19;13.38;;;10.25;;
54408;SDS011;40315;48.620;9.828;2024-03-06T13:59:47;13.73;;;9.82;;
54408;SDS011;40315;48.620;9.828;2024-03-06T14:02:14;13.20;;;9.70;;
54408;SDS011;40315;48.620;9.828;2024-03-06T14:04:41;12.25;;;9.15;;
54408;SDS011;40315;48.620;9.828;2024-03-06T14:07:09;13.82;;;10.13;;
54408;SDS011;40315;48.620;9.828;2024-03-06T14:09:36;14.85;;;11.38;;
54408;SDS011;40315;48.620;9.828;2024-03-06T14:12:03;14.63;;;10.18;;
54408;SDS011;40315;48.620;9.828;2024-03-06T14:14:33;12.82;;;9.73;;
54408;SDS011;40315;48.620;9.828;2024-03-06T14:17:01;13.05;;;10.07;;
54408;SDS011;40315;48.620;9.828;2024-03-06T14:19:29;15.10;;;10.98;;
54408;SDS011;40315;48.620;9.828;2024-03-06T14:21:56;13.05;;;10.05;;
54408;SDS011;40315;48.620;9.828;2024-03-06T14:24:23;12.63;;;9.95;;
54408;SDS011;40315;48.620;9.828;2024-03-06T14:26:50;13.82;;;9.63;;
54408;SDS011;40315;48.620;9.828;2024-03-06T14:29:17;14.15;;;11.13;;
54408;SDS011;40315;48.620;9.828;2024-03-06T14:31:44;13.98;;;10.75;;